createdAt,value
2017-09-15T00:00:11.879Z,85.50
2017-09-15T00:02:40.892Z,85.40
2017-09-15T00:05:09.177Z,85.40
2017-09-15T00:07:37.413Z,85.60
2017-09-15T00:10:06.427Z,85.80
2017-09-15T00:12:34.706Z,85.70
2017-09-15T00:15:02.951Z,85.90
2017-09-15T00:17:31.962Z,85.20
2017-09-15T00:20:00.220Z,85.10
2017-09-15T00:22:28.457Z,85.00
2017-09-15T00:24:56.714Z,85.10
2017-09-15T00:27:24.947Z,85.10
2017-09-15T00:29:53.958Z,84.60
2017-09-15T00:32:22.214Z,84.50
2017-09-15T00:34:51.243Z,85.10
2017-09-15T00:37:19.497Z,84.40
2017-09-15T00:39:48.509Z,84.10
2017-09-15T00:42:16.763Z,84.00
2017-09-15T00:44:45.771Z,84.50
2017-09-15T00:47:14.020Z,84.40
2017-09-15T00:49:42.267Z,84.20
2017-09-15T00:52:10.522Z,83.90
2017-09-15T00:54:38.774Z,84.00
2017-09-15T00:57:07.020Z,83.70
2017-09-15T00:59:36.040Z,84.10
2017-09-15T01:02:04.283Z,83.80
2017-09-15T01:04:32.536Z,83.40
2017-09-15T01:07:00.777Z,83.90
2017-09-15T01:09:29.031Z,83.60
2017-09-15T01:11:58.034Z,83.40
2017-09-15T01:14:26.281Z,83.40
2017-09-15T01:16:55.296Z,83.70
2017-09-15T01:19:24.314Z,83.80
2017-09-15T01:21:52.554Z,83.80
2017-09-15T01:24:21.565Z,83.80
2017-09-15T01:26:49.819Z,83.80
2017-09-15T01:29:18.838Z,84.10
2017-09-15T01:31:47.084Z,83.90
2017-09-15T01:34:16.095Z,84.10
2017-09-15T01:36:44.340Z,84.00
2017-09-15T01:39:12.590Z,84.10
2017-09-15T01:41:40.835Z,84.40
2017-09-15T01:44:09.081Z,84.30
2017-09-15T01:46:38.090Z,84.50
2017-09-15T01:49:07.100Z,84.30
2017-09-15T01:51:35.345Z,84.30
2017-09-15T01:54:04.355Z,84.30
2017-09-15T01:56:32.598Z,84.30
2017-09-15T01:59:00.852Z,84.10
2017-09-15T02:01:29.099Z,84.10
2017-09-15T02:03:57.352Z,84.00
2017-09-15T02:06:26.347Z,84.10
2017-09-15T02:08:54.604Z,84.10
2017-09-15T02:11:23.607Z,84.40
2017-09-15T02:13:51.859Z,84.40
2017-09-15T02:16:20.176Z,84.60
2017-09-15T02:18:48.418Z,84.60
2017-09-15T02:21:17.447Z,84.80
2017-09-15T02:23:45.690Z,84.80
2017-09-15T02:26:14.717Z,85.10
2017-09-15T02:28:42.955Z,85.00
2017-09-15T02:31:11.971Z,85.30
2017-09-15T02:33:40.216Z,85.20
2017-09-15T02:36:08.464Z,85.20
2017-09-15T02:38:36.707Z,85.40
2017-09-15T02:41:04.964Z,85.30
2017-09-15T02:43:33.975Z,85.40
2017-09-15T02:46:02.225Z,85.40
2017-09-15T02:48:31.232Z,85.30
2017-09-15T02:50:59.478Z,85.20
2017-09-15T02:53:29.199Z,85.60
2017-09-15T02:55:58.216Z,85.30
2017-09-15T02:58:26.449Z,85.30
2017-09-15T03:00:54.702Z,85.20
2017-09-15T03:03:22.953Z,85.00
2017-09-15T03:05:51.198Z,85.00
2017-09-15T03:08:20.219Z,84.60
2017-09-15T03:10:48.468Z,84.60
2017-09-15T03:13:17.484Z,84.50
2017-09-15T03:15:45.734Z,84.50
2017-09-15T03:18:14.744Z,84.50
2017-09-15T03:20:42.999Z,84.50
2017-09-15T03:23:12.013Z,84.80
2017-09-15T03:25:40.263Z,84.70
2017-09-15T03:28:09.275Z,84.90
2017-09-15T03:30:37.526Z,84.70
2017-09-15T03:33:05.775Z,85.10
2017-09-15T03:35:34.023Z,85.10
2017-09-15T03:38:02.265Z,85.00
2017-09-15T03:40:31.290Z,85.00
2017-09-15T03:42:59.528Z,85.00
2017-09-15T03:45:28.541Z,84.90
2017-09-15T03:47:57.548Z,85.10
2017-09-15T03:50:25.799Z,85.00
2017-09-15T03:52:54.808Z,85.10
2017-09-15T03:55:23.055Z,85.00
2017-09-15T03:57:52.065Z,85.20
2017-09-15T04:00:20.308Z,85.10
2017-09-15T04:02:48.551Z,85.50
2017-09-15T04:05:16.788Z,85.50
2017-09-15T04:07:45.806Z,86.00
2017-09-15T04:10:14.055Z,85.90
2017-09-15T04:12:43.074Z,86.20
2017-09-15T04:15:11.328Z,86.20
2017-09-15T04:17:40.343Z,86.20
2017-09-15T04:20:08.591Z,86.20
2017-09-15T04:22:37.612Z,86.80
2017-09-15T04:25:05.856Z,86.80
2017-09-15T04:27:34.864Z,86.90
2017-09-15T04:30:03.112Z,86.80
2017-09-15T04:32:32.110Z,87.20
2017-09-15T04:35:01.124Z,86.50
2017-09-15T04:37:29.395Z,86.40
2017-09-15T04:39:58.398Z,86.50
2017-09-15T04:42:26.645Z,86.50
2017-09-15T04:44:55.777Z,86.60
2017-09-15T04:47:24.019Z,86.50
2017-09-15T04:49:53.030Z,86.60
2017-09-15T04:52:21.288Z,86.40
2017-09-15T04:54:50.309Z,86.50
2017-09-15T04:57:17.842Z,86.40
2017-09-15T04:59:46.860Z,86.70
2017-09-15T05:02:15.117Z,86.60
2017-09-15T05:04:44.118Z,86.70
2017-09-15T05:07:12.376Z,86.60
2017-09-15T05:09:41.383Z,86.60
2017-09-15T05:12:09.643Z,86.60
2017-09-15T05:14:38.662Z,86.80
2017-09-15T05:17:06.917Z,86.70
2017-09-15T05:19:35.920Z,86.60
2017-09-15T05:22:04.171Z,86.60
2017-09-15T05:24:32.411Z,86.40
2017-09-15T05:27:00.676Z,86.50
2017-09-15T05:29:28.920Z,86.50
2017-09-15T05:31:57.162Z,86.60
2017-09-15T05:34:25.417Z,86.40
2017-09-15T05:36:53.655Z,86.60
2017-09-15T05:39:21.897Z,86.30
2017-09-15T05:41:50.139Z,86.40
2017-09-15T05:44:18.395Z,86.90
2017-09-15T05:46:46.645Z,86.60
2017-09-15T05:49:15.656Z,86.40
2017-09-15T05:51:43.899Z,86.40
2017-09-15T05:54:12.920Z,86.50
2017-09-15T05:56:41.164Z,86.40
2017-09-15T05:59:10.184Z,86.40
2017-09-15T06:01:38.434Z,86.40
2017-09-15T06:04:07.448Z,86.40
2017-09-15T06:06:35.699Z,86.40
2017-09-15T06:09:04.736Z,86.00
2017-09-15T06:11:32.982Z,86.00
2017-09-15T06:14:02.001Z,85.40
2017-09-15T06:16:30.239Z,86.00
2017-09-15T06:18:59.243Z,84.90
2017-09-15T06:21:28.260Z,84.70
2017-09-15T06:23:56.503Z,84.70
2017-09-15T06:26:25.515Z,84.10
2017-09-15T06:28:53.755Z,84.10
2017-09-15T06:31:22.007Z,83.80
2017-09-15T06:33:50.256Z,83.60
2017-09-15T06:36:18.498Z,83.80
2017-09-15T06:38:47.520Z,82.80
2017-09-15T06:41:15.763Z,82.80
2017-09-15T06:43:44.775Z,82.70
2017-09-15T06:46:13.022Z,82.50
2017-09-15T06:48:41.279Z,81.40
2017-09-15T06:51:09.605Z,80.40
2017-09-15T06:53:37.863Z,81.10
2017-09-15T06:56:06.876Z,79.00
2017-09-15T06:58:35.126Z,80.00
2017-09-15T07:01:04.142Z,79.30
2017-09-15T07:03:32.394Z,79.20
2017-09-15T07:06:01.417Z,79.00
2017-09-15T07:08:29.671Z,79.00
2017-09-15T07:10:58.691Z,78.10
2017-09-15T07:13:27.173Z,77.90
2017-09-15T07:15:55.419Z,78.00
2017-09-15T07:18:24.440Z,77.80
2017-09-15T07:20:52.699Z,77.70
2017-09-15T07:23:20.951Z,77.60
2017-09-15T07:25:49.989Z,77.30
2017-09-15T07:28:18.236Z,77.10
2017-09-15T07:30:47.255Z,76.40
2017-09-15T07:33:15.508Z,76.20
2017-09-15T07:35:44.532Z,75.40
2017-09-15T07:38:12.782Z,75.40
2017-09-15T07:40:41.030Z,74.80
2017-09-15T07:43:10.066Z,73.90
2017-09-15T07:45:38.318Z,73.70
2017-09-15T07:48:06.583Z,74.70
2017-09-15T07:50:35.633Z,73.10
2017-09-15T07:53:03.863Z,73.00
2017-09-15T07:55:32.879Z,73.10
2017-09-15T07:58:01.146Z,73.00
2017-09-15T08:00:29.393Z,72.80
2017-09-15T08:02:58.409Z,72.20
2017-09-15T08:05:26.687Z,72.10
2017-09-15T08:07:54.934Z,72.00
2017-09-15T08:10:23.186Z,70.70
2017-09-15T08:12:51.438Z,71.20
2017-09-15T08:15:19.694Z,72.10
2017-09-15T08:17:47.950Z,72.10
2017-09-15T08:20:16.974Z,72.60
2017-09-15T08:22:45.227Z,72.50
2017-09-15T08:25:13.483Z,73.20
2017-09-15T08:27:42.499Z,72.30
2017-09-15T08:30:10.760Z,72.30
2017-09-15T08:32:39.779Z,72.00
2017-09-15T08:35:08.045Z,72.10
2017-09-15T08:37:36.299Z,72.40
2017-09-15T08:40:05.315Z,72.20
2017-09-15T08:42:33.575Z,72.10
2017-09-15T08:45:02.593Z,71.30
2017-09-15T08:47:30.842Z,71.30
2017-09-15T08:49:59.864Z,70.80
2017-09-15T08:52:28.121Z,70.60
2017-09-15T08:54:56.371Z,71.10
2017-09-15T08:57:24.623Z,71.10
2017-09-15T08:59:52.874Z,71.70
2017-09-15T09:02:21.122Z,71.30
2017-09-15T09:04:49.374Z,70.50
2017-09-15T09:07:17.621Z,70.00
2017-09-15T09:09:45.892Z,68.50
2017-09-15T09:12:14.146Z,69.30
2017-09-15T09:14:42.399Z,68.80
2017-09-15T09:17:10.660Z,69.90
2017-09-15T09:19:39.667Z,68.80
2017-09-15T09:22:07.926Z,68.80
2017-09-15T09:24:36.941Z,68.40
2017-09-15T09:27:05.195Z,68.20
2017-09-15T09:29:34.218Z,68.00
2017-09-15T09:32:02.470Z,67.90
2017-09-15T09:34:31.486Z,66.50
2017-09-15T09:36:59.738Z,66.50
2017-09-15T09:39:28.752Z,67.30
2017-09-15T09:41:57.017Z,66.60
2017-09-15T09:44:26.019Z,65.00
2017-09-15T09:46:54.266Z,64.90
2017-09-15T09:49:23.283Z,63.70
2017-09-15T09:51:51.531Z,63.50
2017-09-15T09:54:20.543Z,61.50
2017-09-15T09:56:49.558Z,62.30
2017-09-15T09:59:17.815Z,62.20
2017-09-15T10:01:46.831Z,60.60
2017-09-15T10:04:15.076Z,60.50
2017-09-15T10:06:44.108Z,63.10
2017-09-15T10:09:12.361Z,63.10
2017-09-15T10:11:40.612Z,64.70
2017-09-15T10:14:09.623Z,63.30
2017-09-15T10:16:37.879Z,63.40
2017-09-15T10:19:06.892Z,61.70
2017-09-15T10:21:35.147Z,61.70
2017-09-15T10:24:04.163Z,61.00
2017-09-15T10:26:32.403Z,61.00
2017-09-15T10:29:00.645Z,61.10
2017-09-15T10:31:28.904Z,61.90
2017-09-15T10:33:57.151Z,60.90
2017-09-15T10:36:26.167Z,60.90
2017-09-15T10:38:54.418Z,60.90
2017-09-15T10:41:23.441Z,59.90
2017-09-15T10:43:51.692Z,59.80
2017-09-15T10:46:20.711Z,60.10
2017-09-15T10:48:48.954Z,60.00
2017-09-15T10:51:17.979Z,57.60
2017-09-15T10:53:46.222Z,57.60
2017-09-15T10:56:15.244Z,59.10
2017-09-15T10:58:48.943Z,59.00
2017-09-15T11:01:17.208Z,56.90
2017-09-15T11:03:45.449Z,56.60
2017-09-15T11:06:13.705Z,54.80
2017-09-15T11:08:41.947Z,57.80
2017-09-15T11:11:10.199Z,57.40
2017-09-15T11:13:39.223Z,58.70
2017-09-15T11:16:07.484Z,58.70
2017-09-15T11:18:35.730Z,59.50
2017-09-15T11:21:04.751Z,59.10
2017-09-15T11:23:33.002Z,59.00
2017-09-15T11:26:02.012Z,60.00
2017-09-15T11:28:30.272Z,59.90
2017-09-15T11:30:59.290Z,60.00
2017-09-15T11:33:27.547Z,60.00
2017-09-15T11:35:56.563Z,61.10
2017-09-15T11:38:24.827Z,61.10
2017-09-15T11:40:53.067Z,60.00
2017-09-15T11:43:21.324Z,59.70
2017-09-15T11:45:49.565Z,59.70
2017-09-15T11:48:17.829Z,59.40
2017-09-15T11:50:46.077Z,58.90
2017-09-15T11:53:14.332Z,59.30
2017-09-15T11:55:42.576Z,60.00
2017-09-15T11:58:10.831Z,59.30
2017-09-15T12:00:39.075Z,58.80
2017-09-15T12:03:07.328Z,57.40
2017-09-15T12:05:35.575Z,55.00
2017-09-15T12:08:03.823Z,53.90
2017-09-15T12:10:32.072Z,53.40
2017-09-15T12:13:00.326Z,53.30
2017-09-15T12:15:28.580Z,53.00
2017-09-15T12:17:56.836Z,55.80
2017-09-15T12:20:25.079Z,57.40
2017-09-15T12:22:54.103Z,58.40
2017-09-15T12:25:22.352Z,57.80
2017-09-15T12:27:51.365Z,56.30
2017-09-15T12:30:19.606Z,56.20
2017-09-15T12:32:47.858Z,52.60
2017-09-15T12:35:16.098Z,52.10
2017-09-15T12:37:44.351Z,51.10
2017-09-15T12:40:13.366Z,51.50
2017-09-15T12:42:41.625Z,51.40
2017-09-15T12:45:10.645Z,49.00
2017-09-15T12:47:38.893Z,48.90
2017-09-15T12:50:07.911Z,47.80
2017-09-15T12:52:36.165Z,47.80
2017-09-15T12:55:05.169Z,46.90
2017-09-15T12:57:33.428Z,46.70
2017-09-15T13:00:01.670Z,44.00
2017-09-15T13:02:29.923Z,45.60
2017-09-15T13:04:58.175Z,44.80
2017-09-15T13:07:26.427Z,42.20
2017-09-15T13:09:54.672Z,41.00
2017-09-15T13:12:22.927Z,43.00
2017-09-15T13:14:51.180Z,44.20
2017-09-15T13:17:19.444Z,43.90
2017-09-15T13:19:47.808Z,44.90
2017-09-15T13:22:16.163Z,45.70
2017-09-15T13:24:45.271Z,48.70
2017-09-15T13:27:14.371Z,49.00
2017-09-15T13:29:42.662Z,48.90
2017-09-15T13:32:11.042Z,47.60
2017-09-15T13:34:39.353Z,46.00
2017-09-15T13:37:07.785Z,48.40
2017-09-15T13:39:36.104Z,47.80
2017-09-15T13:42:04.458Z,48.10
2017-09-15T13:44:32.775Z,49.10
2017-09-15T13:47:01.084Z,51.00
2017-09-15T13:49:30.257Z,50.20
2017-09-15T13:51:59.357Z,45.90
2017-09-15T13:54:27.687Z,45.40
2017-09-15T13:56:56.018Z,48.00
2017-09-15T13:59:25.162Z,45.70
2017-09-15T14:01:53.567Z,45.60
2017-09-15T14:04:21.937Z,44.40
2017-09-15T14:06:50.280Z,44.20
2017-09-15T14:09:18.640Z,46.60
2017-09-15T14:11:46.959Z,47.30
2017-09-15T14:14:15.295Z,47.10
2017-09-15T14:16:43.603Z,43.00
2017-09-15T14:19:11.926Z,42.90
2017-09-15T14:21:41.006Z,41.50
2017-09-15T14:24:09.302Z,41.50
2017-09-15T14:26:38.389Z,45.10
2017-09-15T14:29:07.464Z,46.50
2017-09-15T14:31:35.775Z,46.40
2017-09-15T14:34:04.895Z,47.50
2017-09-15T14:36:33.229Z,47.50
2017-09-15T14:39:01.590Z,47.70
2017-09-15T14:41:29.863Z,47.50
2017-09-15T14:43:58.129Z,48.10
2017-09-15T14:46:26.417Z,46.00
2017-09-15T14:48:54.744Z,47.90
2017-09-15T14:51:23.054Z,48.50
2017-09-15T14:53:51.290Z,46.50
2017-09-15T14:56:19.561Z,45.30
2017-09-15T14:58:48.571Z,47.80
2017-09-15T15:01:16.817Z,47.70
2017-09-15T15:03:45.091Z,47.40
2017-09-15T15:06:13.330Z,47.40
2017-09-15T15:08:41.583Z,48.50
2017-09-15T15:11:09.827Z,49.50
2017-09-15T15:13:38.851Z,49.00
2017-09-15T15:16:07.095Z,49.00
2017-09-15T15:18:36.116Z,48.90
2017-09-15T15:21:04.372Z,48.80
2017-09-15T15:23:32.630Z,49.40
2017-09-15T15:26:01.642Z,55.00
2017-09-15T15:28:29.903Z,55.00
2017-09-15T15:30:58.916Z,61.70
2017-09-15T15:33:27.412Z,61.60
2017-09-15T15:35:55.666Z,63.50
2017-09-15T15:38:23.931Z,64.60
2017-09-15T15:40:52.201Z,65.10
2017-09-15T15:43:21.212Z,65.90
2017-09-15T15:45:49.487Z,65.80
2017-09-15T15:48:17.739Z,66.90
2017-09-15T15:50:46.767Z,68.20
2017-09-15T15:53:15.019Z,68.10
2017-09-15T15:55:44.052Z,68.30
2017-09-15T15:58:12.304Z,68.20
2017-09-15T16:00:40.564Z,68.10
2017-09-15T16:03:09.578Z,68.20
2017-09-15T16:05:37.821Z,68.10
2017-09-15T16:08:06.852Z,67.30
2017-09-15T16:10:35.116Z,67.20
2017-09-15T16:13:04.124Z,64.40
2017-09-15T16:15:32.374Z,64.40
2017-09-15T16:18:01.396Z,66.40
2017-09-15T16:20:29.650Z,66.30
2017-09-15T16:22:57.951Z,67.00
2017-09-15T16:25:26.204Z,64.90
2017-09-15T16:27:54.463Z,65.20
2017-09-15T16:30:22.723Z,65.90
2017-09-15T16:32:50.963Z,66.10
2017-09-15T16:35:19.233Z,66.80
2017-09-15T16:37:46.850Z,66.00
2017-09-15T16:40:21.322Z,66.00
2017-09-15T16:42:54.986Z,65.90
2017-09-15T16:45:28.709Z,66.30
2017-09-15T16:48:02.343Z,66.20
2017-09-15T16:50:30.598Z,67.70
2017-09-15T16:52:58.856Z,68.10
2017-09-15T16:55:27.121Z,68.60
2017-09-15T16:57:55.383Z,68.50
2017-09-15T17:00:24.417Z,67.80
2017-09-15T17:02:52.671Z,67.60
2017-09-15T17:05:20.933Z,68.60
2017-09-15T17:07:49.945Z,69.20
2017-09-15T17:10:18.207Z,69.20
2017-09-15T17:12:46.458Z,67.20
2017-09-15T17:15:15.478Z,68.00
2017-09-15T17:17:43.734Z,68.00
2017-09-15T17:20:12.761Z,68.20
2017-09-15T17:22:40.998Z,68.30
2017-09-15T17:25:10.034Z,67.10
2017-09-15T17:27:38.308Z,67.10
2017-09-15T17:30:06.551Z,67.10
2017-09-15T17:32:35.588Z,69.80
2017-09-15T17:35:03.831Z,69.70
2017-09-15T17:37:32.092Z,68.40
2017-09-15T17:40:01.111Z,70.80
2017-09-15T17:42:29.367Z,70.60
2017-09-15T17:44:58.381Z,68.90
2017-09-15T17:47:26.640Z,68.90
2017-09-15T17:49:54.900Z,69.00
2017-09-15T17:52:23.919Z,70.80
2017-09-15T17:54:52.167Z,70.80
2017-09-15T17:57:21.193Z,70.40
2017-09-15T17:59:49.440Z,70.30
2017-09-15T18:02:18.487Z,68.60
2017-09-15T18:04:46.737Z,68.40
2017-09-15T18:07:14.988Z,68.80
2017-09-15T18:09:44.823Z,70.40
2017-09-15T18:12:13.069Z,70.20
2017-09-15T18:14:42.094Z,69.60
2017-09-15T18:17:10.342Z,69.50
2017-09-15T18:19:39.366Z,68.60
2017-09-15T18:22:07.605Z,68.60
2017-09-15T18:24:36.632Z,72.20
2017-09-15T18:27:04.889Z,72.10
2017-09-15T18:29:33.142Z,73.10
2017-09-15T18:32:01.401Z,73.60
2017-09-15T18:34:29.659Z,73.40
2017-09-15T18:36:57.910Z,72.80
2017-09-15T18:39:26.172Z,73.00
2017-09-15T18:41:54.426Z,73.90
2017-09-15T18:44:23.436Z,76.70
2017-09-15T18:46:51.712Z,76.70
2017-09-15T18:49:19.959Z,77.20
2017-09-15T18:51:48.214Z,77.10
2017-09-15T18:54:16.461Z,77.90
2017-09-15T18:56:44.708Z,78.00
2017-09-15T18:59:13.764Z,78.30
2017-09-15T19:01:42.006Z,78.30
2017-09-15T19:04:10.250Z,78.30
2017-09-15T19:06:39.314Z,78.40
2017-09-15T19:09:07.551Z,78.40
2017-09-15T19:11:35.789Z,78.00
2017-09-15T19:14:04.842Z,78.80
2017-09-15T19:16:33.096Z,78.80
2017-09-15T19:19:01.339Z,79.00
2017-09-15T19:21:30.358Z,79.10
2017-09-15T19:23:58.612Z,78.90
2017-09-15T19:26:26.855Z,78.90
2017-09-15T19:28:55.104Z,78.80
2017-09-15T19:31:23.390Z,78.80
2017-09-15T19:33:51.636Z,79.00
2017-09-15T19:36:19.881Z,80.00
2017-09-15T19:38:48.900Z,79.70
2017-09-15T19:41:17.136Z,79.60
2017-09-15T19:43:45.385Z,80.10
2017-09-15T19:46:13.622Z,80.60
2017-09-15T19:48:41.880Z,80.40
2017-09-15T19:51:10.879Z,80.50
2017-09-15T19:53:39.144Z,80.50
2017-09-15T19:56:08.195Z,80.60
2017-09-15T19:58:36.469Z,80.60
2017-09-15T20:01:04.749Z,80.70
2017-09-15T20:03:32.979Z,81.00
2017-09-15T20:06:01.218Z,81.10
2017-09-15T20:08:29.508Z,81.10
2017-09-15T20:10:57.738Z,81.60
2017-09-15T20:13:26.747Z,80.80
2017-09-15T20:15:55.007Z,80.80
2017-09-15T20:18:23.255Z,80.80
2017-09-15T20:20:51.524Z,81.10
2017-09-15T20:23:19.771Z,81.70
2017-09-15T20:25:48.786Z,82.70
2017-09-15T20:28:17.039Z,82.50
2017-09-15T20:30:46.051Z,83.00
2017-09-15T20:33:14.305Z,82.80
2017-09-15T20:35:42.548Z,83.10
2017-09-15T20:38:10.800Z,83.30
2017-09-15T20:40:39.035Z,83.30
2017-09-15T20:43:08.052Z,83.80
2017-09-15T20:45:36.299Z,83.70
2017-09-15T20:48:04.577Z,84.30
2017-09-15T20:50:32.876Z,83.90
2017-09-15T20:53:01.879Z,83.60
2017-09-15T20:55:30.131Z,83.60
2017-09-15T20:57:59.172Z,83.00
2017-09-15T21:00:27.420Z,83.00
2017-09-15T21:02:55.666Z,83.40
2017-09-15T21:05:24.696Z,83.60
2017-09-15T21:07:52.935Z,83.60
2017-09-15T21:10:21.979Z,83.80
2017-09-15T21:12:50.218Z,83.40
2017-09-15T21:15:19.280Z,84.30
2017-09-15T21:17:47.515Z,84.20
2017-09-15T21:20:15.766Z,84.50
2017-09-15T21:22:44.052Z,84.20
2017-09-15T21:25:12.296Z,83.80
2017-09-15T21:27:41.418Z,82.70
2017-09-15T21:30:09.716Z,82.70
2017-09-15T21:32:38.079Z,81.80
2017-09-15T21:35:06.314Z,81.90
2017-09-15T21:37:34.562Z,82.50
2017-09-15T21:40:02.794Z,82.60
2017-09-15T21:42:31.119Z,82.00
2017-09-15T21:44:59.359Z,81.60
2017-09-15T21:47:28.379Z,81.50
2017-09-15T21:49:56.623Z,81.40
2017-09-15T21:52:25.642Z,82.30
2017-09-15T21:54:53.891Z,81.60
2017-09-15T21:57:22.158Z,82.30
2017-09-15T21:59:50.399Z,82.30
2017-09-15T22:02:18.646Z,82.50
2017-09-15T22:04:46.902Z,82.70
2017-09-15T22:07:15.908Z,84.20
2017-09-15T22:09:44.158Z,84.00
2017-09-15T22:12:12.401Z,84.70
2017-09-15T22:14:40.657Z,85.20
2017-09-15T22:17:08.906Z,84.50
2017-09-15T22:19:37.920Z,81.60
2017-09-15T22:22:11.768Z,81.60
2017-09-15T22:24:40.023Z,81.60
2017-09-15T22:27:08.264Z,82.30
2017-09-15T22:29:36.506Z,82.50
2017-09-15T22:32:04.751Z,82.40
2017-09-15T22:34:33.005Z,82.20
2017-09-15T22:37:01.238Z,82.80
2017-09-15T22:39:30.257Z,84.50
2017-09-15T22:41:58.604Z,84.40
2017-09-15T22:44:27.647Z,83.90
2017-09-15T22:46:55.912Z,83.90
2017-09-15T22:49:24.155Z,83.80
2017-09-15T22:51:53.240Z,83.90
2017-09-15T22:54:32.251Z,83.90
2017-09-15T22:57:00.534Z,84.30
2017-09-15T22:59:28.807Z,84.30
2017-09-15T23:01:57.216Z,84.30
2017-09-15T23:04:26.365Z,85.00
2017-09-15T23:06:55.631Z,86.40
2017-09-15T23:09:23.963Z,86.40
2017-09-15T23:11:52.365Z,86.40
2017-09-15T23:14:21.426Z,86.70
2017-09-15T23:16:49.713Z,86.50
2017-09-15T23:19:17.974Z,86.60
2017-09-15T23:21:46.246Z,86.10
2017-09-15T23:24:14.520Z,84.90
2017-09-15T23:26:42.815Z,84.00
2017-09-15T23:29:11.076Z,83.30
2017-09-15T23:31:39.377Z,83.00
2017-09-15T23:34:07.639Z,82.30
2017-09-15T23:36:35.938Z,82.70
2017-09-15T23:39:05.011Z,81.90
2017-09-15T23:41:33.302Z,81.70
2017-09-15T23:44:02.327Z,81.00
2017-09-15T23:46:30.814Z,80.30
2017-09-15T23:48:59.116Z,79.50
2017-09-15T23:51:27.446Z,79.00
2017-09-15T23:53:55.701Z,78.50
2017-09-15T23:56:23.991Z,78.50
2017-09-15T23:58:53.043Z,78.50
